sensor_id;sensor_type;location;lat;lon;timestamp;temperature;humidity
26621;DHT22;14253;44.840;10.444;2023-09-19T00:01:42;20.80;1.00
26621;DHT22;14253;44.840;10.444;2023-09-19T00:04:12;20.70;1.00
26621;DHT22;14253;44.840;10.444;2023-09-19T00:06:38;20.60;1.00
26621;DHT22;14253;44.840;10.444;2023-09-19T00:09:05;20.60;1.00
26621;DHT22;14253;44.840;10.444;2023-09-19T00:11:30;20.50;1.00
26621;DHT22;14253;44.840;10.444;2023-09-19T00:13:57;20.60;1.00
26621;DHT22;14253;44.840;10.444;2023-09-19T00:16:26;20.60;1.00
26621;DHT22;14253;44.840;10.444;2023-09-19T00:18:52;20.50;1.00
26621;DHT22;14253;44.840;10.444;2023-09-19T00:21:18;20.40;1.00
26621;DHT22;14253;44.840;10.444;2023-09-19T00:23:45;20.40;1.00
26621;DHT22;14253;44.840;10.444;2023-09-19T00:26:11;20.40;1.00
26621;DHT22;14253;44.840;10.444;2023-09-19T00:28:38;20.30;1.00
26621;DHT22;14253;44.840;10.444;2023-09-19T00:31:08;20.30;1.00
26621;DHT22;14253;44.840;10.444;2023-09-19T00:33:34;20.30;1.00
26621;DHT22;14253;44.840;10.444;2023-09-19T00:36:00;20.30;1.00
26621;DHT22;14253;44.840;10.444;2023-09-19T00:38:31;20.30;1.00
26621;DHT22;14253;44.840;10.444;2023-09-19T00:40:57;20.30;1.00
26621;DHT22;14253;44.840;10.444;2023-09-19T00:43:25;20.30;1.00
26621;DHT22;14253;44.840;10.444;2023-09-19T00:45:55;20.30;1.00
26621;DHT22;14253;44.840;10.444;2023-09-19T00:48:22;20.20;1.00
26621;DHT22;14253;44.840;10.444;2023-09-19T00:50:49;20.20;1.00
26621;DHT22;14253;44.840;10.444;2023-09-19T00:53:21;20.20;1.00
26621;DHT22;14253;44.840;10.444;2023-09-19T00:55:48;20.20;1.00
26621;DHT22;14253;44.840;10.444;2023-09-19T00:58:17;20.20;1.00
26621;DHT22;14253;44.840;10.444;2023-09-19T01:00:44;20.20;1.00
26621;DHT22;14253;44.840;10.444;2023-09-19T01:03:11;20.20;1.00
26621;DHT22;14253;44.840;10.444;2023-09-19T01:05:40;20.20;1.00
26621;DHT22;14253;44.840;10.444;2023-09-19T01:08:06;20.10;1.00
26621;DHT22;14253;44.840;10.444;2023-09-19T01:10:33;20.10;1.00
26621;DHT22;14253;44.840;10.444;2023-09-19T01:19:01;20.00;1.00
26621;DHT22;14253;44.840;10.444;2023-09-19T01:31:47;19.90;4.70
26621;DHT22;14253;44.840;10.444;2023-09-19T01:34:14;19.90;14.20
26621;DHT22;14253;44.840;10.444;2023-09-19T01:36:40;19.90;7.70
26621;DHT22;14253;44.840;10.444;2023-09-19T01:39:13;19.90;11.20
26621;DHT22;14253;44.840;10.444;2023-09-19T01:44:40;19.90;26.10
26621;DHT22;14253;44.840;10.444;2023-09-19T01:50:01;19.80;30.90
26621;DHT22;14253;44.840;10.444;2023-09-19T01:52:31;19.90;35.30
26621;DHT22;14253;44.840;10.444;2023-09-19T01:55:06;19.90;41.50
26621;DHT22;14253;44.840;10.444;2023-09-19T01:57:42;19.90;51.20
26621;DHT22;14253;44.840;10.444;2023-09-19T02:00:12;19.90;50.00
26621;DHT22;14253;44.840;10.444;2023-09-19T02:02:45;19.90;53.10
26621;DHT22;14253;44.840;10.444;2023-09-19T02:05:13;19.90;58.80
26621;DHT22;14253;44.840;10.444;2023-09-19T02:07:39;19.90;65.00
26621;DHT22;14253;44.840;10.444;2023-09-19T02:10:06;19.90;69.00
26621;DHT22;14253;44.840;10.444;2023-09-19T02:12:33;19.90;76.40
26621;DHT22;14253;44.840;10.444;2023-09-19T02:15:03;19.90;66.90
26621;DHT22;14253;44.840;10.444;2023-09-19T02:17:29;19.90;57.90
26621;DHT22;14253;44.840;10.444;2023-09-19T02:19:57;19.90;60.10
26621;DHT22;14253;44.840;10.444;2023-09-19T02:22:24;19.90;49.00
26621;DHT22;14253;44.840;10.444;2023-09-19T02:24:51;19.90;60.20
26621;DHT22;14253;44.840;10.444;2023-09-19T02:27:18;19.90;26.90
26621;DHT22;14253;44.840;10.444;2023-09-19T02:29:44;19.80;39.70
26621;DHT22;14253;44.840;10.444;2023-09-19T02:32:10;19.80;45.00
26621;DHT22;14253;44.840;10.444;2023-09-19T02:34:36;19.70;47.90
26621;DHT22;14253;44.840;10.444;2023-09-19T02:37:05;19.70;45.00
26621;DHT22;14253;44.840;10.444;2023-09-19T02:39:32;19.70;56.00
26621;DHT22;14253;44.840;10.444;2023-09-19T02:41:58;19.70;56.80
26621;DHT22;14253;44.840;10.444;2023-09-19T02:44:24;19.70;56.10
26621;DHT22;14253;44.840;10.444;2023-09-19T02:46:50;19.70;78.20
26621;DHT22;14253;44.840;10.444;2023-09-19T02:49:16;19.70;61.10
26621;DHT22;14253;44.840;10.444;2023-09-19T02:51:44;19.60;60.50
26621;DHT22;14253;44.840;10.444;2023-09-19T02:54:11;19.50;70.80
26621;DHT22;14253;44.840;10.444;2023-09-19T02:56:37;19.50;88.10
26621;DHT22;14253;44.840;10.444;2023-09-19T02:59:03;19.40;89.90
26621;DHT22;14253;44.840;10.444;2023-09-19T03:01:30;19.40;99.90
26621;DHT22;14253;44.840;10.444;2023-09-19T03:03:56;19.40;99.90
26621;DHT22;14253;44.840;10.444;2023-09-19T03:06:22;19.30;99.90
26621;DHT22;14253;44.840;10.444;2023-09-19T03:08:50;19.20;99.90
26621;DHT22;14253;44.840;10.444;2023-09-19T03:11:18;19.30;99.90
26621;DHT22;14253;44.840;10.444;2023-09-19T03:13:52;19.20;99.90
26621;DHT22;14253;44.840;10.444;2023-09-19T03:16:18;19.30;99.90
26621;DHT22;14253;44.840;10.444;2023-09-19T03:18:48;19.30;99.90
26621;DHT22;14253;44.840;10.444;2023-09-19T03:21:16;19.30;99.90
26621;DHT22;14253;44.840;10.444;2023-09-19T03:23:43;19.30;99.90
26621;DHT22;14253;44.840;10.444;2023-09-19T03:26:13;19.40;99.90
26621;DHT22;14253;44.840;10.444;2023-09-19T03:28:42;19.30;99.90
26621;DHT22;14253;44.840;10.444;2023-09-19T03:31:09;19.30;99.90
26621;DHT22;14253;44.840;10.444;2023-09-19T03:33:36;19.30;99.90
26621;DHT22;14253;44.840;10.444;2023-09-19T03:36:04;19.30;99.90
26621;DHT22;14253;44.840;10.444;2023-09-19T03:38:31;19.20;99.90
26621;DHT22;14253;44.840;10.444;2023-09-19T03:40:58;19.20;99.90
26621;DHT22;14253;44.840;10.444;2023-09-19T03:43:25;19.20;99.90
26621;DHT22;14253;44.840;10.444;2023-09-19T03:45:51;19.20;99.90
26621;DHT22;14253;44.840;10.444;2023-09-19T03:48:20;19.10;99.90
26621;DHT22;14253;44.840;10.444;2023-09-19T03:50:47;19.10;99.90
26621;DHT22;14253;44.840;10.444;2023-09-19T03:53:14;19.10;99.90
26621;DHT22;14253;44.840;10.444;2023-09-19T03:55:40;19.00;99.90
26621;DHT22;14253;44.840;10.444;2023-09-19T03:58:06;19.00;99.90
26621;DHT22;14253;44.840;10.444;2023-09-19T04:00:32;19.00;99.90
26621;DHT22;14253;44.840;10.444;2023-09-19T04:03:01;19.00;99.90
26621;DHT22;14253;44.840;10.444;2023-09-19T04:05:31;18.90;99.90
26621;DHT22;14253;44.840;10.444;2023-09-19T04:07:58;19.00;99.90
26621;DHT22;14253;44.840;10.444;2023-09-19T04:10:24;18.90;99.90
26621;DHT22;14253;44.840;10.444;2023-09-19T04:12:54;18.90;99.90
26621;DHT22;14253;44.840;10.444;2023-09-19T04:15:22;19.00;99.90
26621;DHT22;14253;44.840;10.444;2023-09-19T04:17:53;19.00;99.90
26621;DHT22;14253;44.840;10.444;2023-09-19T04:20:22;18.90;99.90
26621;DHT22;14253;44.840;10.444;2023-09-19T04:22:49;18.90;99.90
26621;DHT22;14253;44.840;10.444;2023-09-19T04:25:23;18.80;99.90
26621;DHT22;14253;44.840;10.444;2023-09-19T04:27:50;18.70;99.90
26621;DHT22;14253;44.840;10.444;2023-09-19T04:30:16;18.80;99.90
26621;DHT22;14253;44.840;10.444;2023-09-19T04:32:42;18.80;99.90
26621;DHT22;14253;44.840;10.444;2023-09-19T04:35:10;18.80;99.90
26621;DHT22;14253;44.840;10.444;2023-09-19T04:37:39;18.70;99.90
26621;DHT22;14253;44.840;10.444;2023-09-19T04:40:09;18.50;99.90
26621;DHT22;14253;44.840;10.444;2023-09-19T04:42:43;18.40;99.90
26621;DHT22;14253;44.840;10.444;2023-09-19T04:45:10;18.30;99.90
26621;DHT22;14253;44.840;10.444;2023-09-19T04:47:37;18.30;99.90
26621;DHT22;14253;44.840;10.444;2023-09-19T04:50:08;18.20;99.90
26621;DHT22;14253;44.840;10.444;2023-09-19T04:52:41;18.10;99.90
26621;DHT22;14253;44.840;10.444;2023-09-19T04:55:14;18.10;99.90
26621;DHT22;14253;44.840;10.444;2023-09-19T04:57:46;18.20;99.90
26621;DHT22;14253;44.840;10.444;2023-09-19T05:00:14;18.20;99.90
26621;DHT22;14253;44.840;10.444;2023-09-19T05:02:41;18.30;99.90
26621;DHT22;14253;44.840;10.444;2023-09-19T05:05:08;18.20;99.90
26621;DHT22;14253;44.840;10.444;2023-09-19T05:07:37;18.30;99.90
26621;DHT22;14253;44.840;10.444;2023-09-19T05:10:05;18.30;99.90
26621;DHT22;14253;44.840;10.444;2023-09-19T05:12:37;18.30;99.90
26621;DHT22;14253;44.840;10.444;2023-09-19T05:15:06;18.30;99.90
26621;DHT22;14253;44.840;10.444;2023-09-19T05:17:33;18.30;99.90
26621;DHT22;14253;44.840;10.444;2023-09-19T05:20:00;18.30;99.90
26621;DHT22;14253;44.840;10.444;2023-09-19T05:22:31;18.20;99.90
26621;DHT22;14253;44.840;10.444;2023-09-19T05:24:58;18.20;99.90
26621;DHT22;14253;44.840;10.444;2023-09-19T05:27:24;18.20;99.90
26621;DHT22;14253;44.840;10.444;2023-09-19T05:29:50;18.20;99.90
26621;DHT22;14253;44.840;10.444;2023-09-19T05:32:19;18.20;99.90
26621;DHT22;14253;44.840;10.444;2023-09-19T05:34:46;18.30;99.90
26621;DHT22;14253;44.840;10.444;2023-09-19T05:37:13;18.30;99.90
26621;DHT22;14253;44.840;10.444;2023-09-19T05:39:39;18.40;99.90
26621;DHT22;14253;44.840;10.444;2023-09-19T05:42:05;18.60;99.90
26621;DHT22;14253;44.840;10.444;2023-09-19T05:44:33;18.80;99.90
26621;DHT22;14253;44.840;10.444;2023-09-19T05:47:00;19.00;99.90
26621;DHT22;14253;44.840;10.444;2023-09-19T05:49:25;19.20;99.90
26621;DHT22;14253;44.840;10.444;2023-09-19T05:51:51;19.30;99.90
26621;DHT22;14253;44.840;10.444;2023-09-19T05:54:22;19.40;99.90
26621;DHT22;14253;44.840;10.444;2023-09-19T05:56:49;19.60;99.90
26621;DHT22;14253;44.840;10.444;2023-09-19T05:59:18;19.60;99.90
26621;DHT22;14253;44.840;10.444;2023-09-19T06:01:44;19.70;99.90
26621;DHT22;14253;44.840;10.444;2023-09-19T06:04:10;19.80;99.90
26621;DHT22;14253;44.840;10.444;2023-09-19T06:06:36;20.00;99.90
26621;DHT22;14253;44.840;10.444;2023-09-19T06:09:06;20.20;99.90
26621;DHT22;14253;44.840;10.444;2023-09-19T06:11:35;20.20;96.30
26621;DHT22;14253;44.840;10.444;2023-09-19T06:14:02;20.30;98.50
26621;DHT22;14253;44.840;10.444;2023-09-19T06:16:29;20.50;72.00
26621;DHT22;14253;44.840;10.444;2023-09-19T06:18:55;20.80;45.80
26621;DHT22;14253;44.840;10.444;2023-09-19T06:21:24;20.90;10.00
26621;DHT22;14253;44.840;10.444;2023-09-19T06:23:50;21.00;1.70
26621;DHT22;14253;44.840;10.444;2023-09-19T06:26:17;21.10;1.00
26621;DHT22;14253;44.840;10.444;2023-09-19T06:28:43;21.40;1.00
26621;DHT22;14253;44.840;10.444;2023-09-19T06:31:10;21.60;1.00
26621;DHT22;14253;44.840;10.444;2023-09-19T06:33:37;21.70;1.00
26621;DHT22;14253;44.840;10.444;2023-09-19T06:36:06;21.60;1.00
26621;DHT22;14253;44.840;10.444;2023-09-19T06:38:33;21.80;1.00
26621;DHT22;14253;44.840;10.444;2023-09-19T06:41:04;21.70;1.00
26621;DHT22;14253;44.840;10.444;2023-09-19T06:43:31;21.70;1.00
26621;DHT22;14253;44.840;10.444;2023-09-19T06:45:58;21.80;1.00
26621;DHT22;14253;44.840;10.444;2023-09-19T06:48:25;21.80;1.00
26621;DHT22;14253;44.840;10.444;2023-09-19T06:51:01;22.00;1.00
26621;DHT22;14253;44.840;10.444;2023-09-19T06:53:33;22.00;1.00
26621;DHT22;14253;44.840;10.444;2023-09-19T06:56:00;22.00;1.00
26621;DHT22;14253;44.840;10.444;2023-09-19T06:58:27;22.00;1.00
26621;DHT22;14253;44.840;10.444;2023-09-19T07:00:53;21.90;1.00
26621;DHT22;14253;44.840;10.444;2023-09-19T07:03:20;21.90;1.00
26621;DHT22;14253;44.840;10.444;2023-09-19T07:05:48;22.00;1.00
26621;DHT22;14253;44.840;10.444;2023-09-19T07:08:15;22.30;1.00
26621;DHT22;14253;44.840;10.444;2023-09-19T07:10:42;22.60;1.00
26621;DHT22;14253;44.840;10.444;2023-09-19T07:13:15;22.70;1.00
26621;DHT22;14253;44.840;10.444;2023-09-19T07:15:44;23.00;1.00
26621;DHT22;14253;44.840;10.444;2023-09-19T07:18:16;22.90;1.00
26621;DHT22;14253;44.840;10.444;2023-09-19T07:20:43;23.00;1.00
26621;DHT22;14253;44.840;10.444;2023-09-19T07:23:17;23.00;1.00
26621;DHT22;14253;44.840;10.444;2023-09-19T07:25:44;23.10;1.00
26621;DHT22;14253;44.840;10.444;2023-09-19T07:28:10;23.30;1.00
26621;DHT22;14253;44.840;10.444;2023-09-19T07:30:36;23.30;99.90
26621;DHT22;14253;44.840;10.444;2023-09-19T07:33:03;23.40;1.00
26621;DHT22;14253;44.840;10.444;2023-09-19T07:35:31;23.60;99.90
26621;DHT22;14253;44.840;10.444;2023-09-19T07:37:57;23.60;99.90
26621;DHT22;14253;44.840;10.444;2023-09-19T07:40:27;23.60;99.90
26621;DHT22;14253;44.840;10.444;2023-09-19T07:42:55;23.60;99.90
26621;DHT22;14253;44.840;10.444;2023-09-19T07:45:21;23.70;99.90
26621;DHT22;14253;44.840;10.444;2023-09-19T07:47:49;23.90;99.90
26621;DHT22;14253;44.840;10.444;2023-09-19T07:50:17;24.10;99.90
26621;DHT22;14253;44.840;10.444;2023-09-19T07:52:45;24.20;99.90
26621;DHT22;14253;44.840;10.444;2023-09-19T07:55:11;24.00;99.90
26621;DHT22;14253;44.840;10.444;2023-09-19T07:57:42;24.50;99.90
26621;DHT22;14253;44.840;10.444;2023-09-19T08:00:10;24.60;99.90
26621;DHT22;14253;44.840;10.444;2023-09-19T08:02:41;24.20;99.90
26621;DHT22;14253;44.840;10.444;2023-09-19T08:05:09;23.50;99.90
26621;DHT22;14253;44.840;10.444;2023-09-19T08:07:38;23.10;1.00
26621;DHT22;14253;44.840;10.444;2023-09-19T08:10:05;23.10;1.00
26621;DHT22;14253;44.840;10.444;2023-09-19T08:12:37;23.10;1.00
26621;DHT22;14253;44.840;10.444;2023-09-19T08:15:18;23.10;1.00
26621;DHT22;14253;44.840;10.444;2023-09-19T08:17:46;23.40;1.00
26621;DHT22;14253;44.840;10.444;2023-09-19T08:20:12;23.70;1.00
26621;DHT22;14253;44.840;10.444;2023-09-19T08:22:48;24.00;99.90
26621;DHT22;14253;44.840;10.444;2023-09-19T08:25:15;24.40;99.90
26621;DHT22;14253;44.840;10.444;2023-09-19T08:27:48;24.60;99.90
26621;DHT22;14253;44.840;10.444;2023-09-19T08:30:21;24.50;99.90
26621;DHT22;14253;44.840;10.444;2023-09-19T08:33:01;24.60;99.90
26621;DHT22;14253;44.840;10.444;2023-09-19T08:35:28;24.80;99.90
26621;DHT22;14253;44.840;10.444;2023-09-19T08:37:54;24.80;99.90
26621;DHT22;14253;44.840;10.444;2023-09-19T08:40:23;24.70;99.90
26621;DHT22;14253;44.840;10.444;2023-09-19T08:42:56;24.60;99.90
26621;DHT22;14253;44.840;10.444;2023-09-19T08:45:26;24.70;99.90
26621;DHT22;14253;44.840;10.444;2023-09-19T08:51:10;24.70;99.90
26621;DHT22;14253;44.840;10.444;2023-09-19T08:56:32;25.30;99.90
26621;DHT22;14253;44.840;10.444;2023-09-19T08:59:08;25.20;99.90
26621;DHT22;14253;44.840;10.444;2023-09-19T09:01:34;25.30;99.90
26621;DHT22;14253;44.840;10.444;2023-09-19T09:04:02;25.20;99.90
26621;DHT22;14253;44.840;10.444;2023-09-19T09:06:29;25.30;99.90
26621;DHT22;14253;44.840;10.444;2023-09-19T09:08:55;25.30;99.90
26621;DHT22;14253;44.840;10.444;2023-09-19T09:11:22;25.30;99.90
26621;DHT22;14253;44.840;10.444;2023-09-19T09:13:51;25.40;99.90
26621;DHT22;14253;44.840;10.444;2023-09-19T09:16:17;25.70;99.90
26621;DHT22;14253;44.840;10.444;2023-09-19T09:18:45;26.10;99.90
26621;DHT22;14253;44.840;10.444;2023-09-19T09:21:12;26.30;99.90
26621;DHT22;14253;44.840;10.444;2023-09-19T09:23:39;26.40;99.90
26621;DHT22;14253;44.840;10.444;2023-09-19T09:26:05;26.30;99.90
26621;DHT22;14253;44.840;10.444;2023-09-19T09:28:34;26.20;99.90
26621;DHT22;14253;44.840;10.444;2023-09-19T09:31:01;26.30;99.90
26621;DHT22;14253;44.840;10.444;2023-09-19T09:33:35;26.60;99.90
26621;DHT22;14253;44.840;10.444;2023-09-19T09:36:02;26.90;99.90
26621;DHT22;14253;44.840;10.444;2023-09-19T09:38:30;26.70;99.90
26621;DHT22;14253;44.840;10.444;2023-09-19T09:41:09;26.50;99.90
26621;DHT22;14253;44.840;10.444;2023-09-19T09:43:40;26.40;99.90
26621;DHT22;14253;44.840;10.444;2023-09-19T09:46:12;26.40;99.90
26621;DHT22;14253;44.840;10.444;2023-09-19T09:52:01;26.70;99.90
26621;DHT22;14253;44.840;10.444;2023-09-19T09:54:32;26.90;99.90
26621;DHT22;14253;44.840;10.444;2023-09-19T09:57:11;27.30;99.90
26621;DHT22;14253;44.840;10.444;2023-09-19T09:59:52;27.00;99.90
26621;DHT22;14253;44.840;10.444;2023-09-19T10:02:29;27.00;99.90
26621;DHT22;14253;44.840;10.444;2023-09-19T10:05:22;27.20;99.90
26621;DHT22;14253;44.840;10.444;2023-09-19T10:08:12;27.30;99.90
26621;DHT22;14253;44.840;10.444;2023-09-19T10:10:39;27.60;99.90
26621;DHT22;14253;44.840;10.444;2023-09-19T10:13:10;28.10;99.90
26621;DHT22;14253;44.840;10.444;2023-09-19T10:15:48;27.90;99.90
26621;DHT22;14253;44.840;10.444;2023-09-19T10:18:21;27.90;99.90
26621;DHT22;14253;44.840;10.444;2023-09-19T10:20:48;27.80;99.90
26621;DHT22;14253;44.840;10.444;2023-09-19T10:23:18;28.10;99.90
26621;DHT22;14253;44.840;10.444;2023-09-19T10:25:52;28.40;99.90
26621;DHT22;14253;44.840;10.444;2023-09-19T10:28:20;28.60;99.90
26621;DHT22;14253;44.840;10.444;2023-09-19T10:30:50;28.60;99.90
26621;DHT22;14253;44.840;10.444;2023-09-19T10:33:19;28.50;99.90
26621;DHT22;14253;44.840;10.444;2023-09-19T10:35:50;28.60;99.90
26621;DHT22;14253;44.840;10.444;2023-09-19T10:38:26;28.70;99.90
26621;DHT22;14253;44.840;10.444;2023-09-19T10:40:55;28.50;99.90
26621;DHT22;14253;44.840;10.444;2023-09-19T10:43:33;28.30;99.90
26621;DHT22;14253;44.840;10.444;2023-09-19T10:46:06;28.20;99.90
26621;DHT22;14253;44.840;10.444;2023-09-19T10:48:32;28.30;99.90
26621;DHT22;14253;44.840;10.444;2023-09-19T10:53:53;28.50;99.90
26621;DHT22;14253;44.840;10.444;2023-09-19T10:56:26;28.40;99.90
26621;DHT22;14253;44.840;10.444;2023-09-19T11:01:43;28.70;99.90
26621;DHT22;14253;44.840;10.444;2023-09-19T11:07:08;28.90;99.90
26621;DHT22;14253;44.840;10.444;2023-09-19T11:09:51;29.00;99.90
26621;DHT22;14253;44.840;10.444;2023-09-19T11:14:57;28.50;99.90
26621;DHT22;14253;44.840;10.444;2023-09-19T11:17:33;28.60;99.90
26621;DHT22;14253;44.840;10.444;2023-09-19T11:30:38;29.10;99.90
26621;DHT22;14253;44.840;10.444;2023-09-19T11:36:03;28.90;99.90
26621;DHT22;14253;44.840;10.444;2023-09-19T11:43:49;29.40;99.90
26621;DHT22;14253;44.840;10.444;2023-09-19T11:46:17;29.40;99.90
26621;DHT22;14253;44.840;10.444;2023-09-19T11:48:51;29.10;99.90
26621;DHT22;14253;44.840;10.444;2023-09-19T11:51:19;29.10;99.90
26621;DHT22;14253;44.840;10.444;2023-09-19T11:53:46;29.10;99.90
26621;DHT22;14253;44.840;10.444;2023-09-19T11:56:16;29.30;99.90
26621;DHT22;14253;44.840;10.444;2023-09-19T11:58:44;29.20;99.90
26621;DHT22;14253;44.840;10.444;2023-09-19T12:01:16;29.20;99.90
26621;DHT22;14253;44.840;10.444;2023-09-19T12:03:47;29.20;99.90
26621;DHT22;14253;44.840;10.444;2023-09-19T12:06:18;29.20;99.90
26621;DHT22;14253;44.840;10.444;2023-09-19T12:08:45;29.40;99.90
26621;DHT22;14253;44.840;10.444;2023-09-19T12:11:14;29.30;99.90
26621;DHT22;14253;44.840;10.444;2023-09-19T12:13:48;29.30;99.90
26621;DHT22;14253;44.840;10.444;2023-09-19T12:16:20;29.30;99.90
26621;DHT22;14253;44.840;10.444;2023-09-19T12:18:50;29.30;99.90
26621;DHT22;14253;44.840;10.444;2023-09-19T12:24:06;29.50;99.90
26621;DHT22;14253;44.840;10.444;2023-09-19T12:26:46;29.70;99.90
26621;DHT22;14253;44.840;10.444;2023-09-19T12:29:21;30.10;99.90
26621;DHT22;14253;44.840;10.444;2023-09-19T12:31:55;30.10;99.90
26621;DHT22;14253;44.840;10.444;2023-09-19T12:34:27;30.30;99.90
26621;DHT22;14253;44.840;10.444;2023-09-19T12:37:13;30.30;99.90
26621;DHT22;14253;44.840;10.444;2023-09-19T12:39:50;30.30;99.90
26621;DHT22;14253;44.840;10.444;2023-09-19T12:42:23;30.60;99.90
26621;DHT22;14253;44.840;10.444;2023-09-19T12:44:52;30.60;99.90
26621;DHT22;14253;44.840;10.444;2023-09-19T12:47:24;30.70;99.90
26621;DHT22;14253;44.840;10.444;2023-09-19T12:50:11;30.90;99.90
26621;DHT22;14253;44.840;10.444;2023-09-19T12:52:56;30.60;99.90
26621;DHT22;14253;44.840;10.444;2023-09-19T12:55:29;30.30;99.90
26621;DHT22;14253;44.840;10.444;2023-09-19T12:58:14;30.30;99.90
26621;DHT22;14253;44.840;10.444;2023-09-19T13:00:43;30.40;99.90
26621;DHT22;14253;44.840;10.444;2023-09-19T13:05:52;30.50;99.90
26621;DHT22;14253;44.840;10.444;2023-09-19T13:08:27;30.60;99.90
26621;DHT22;14253;44.840;10.444;2023-09-19T13:11:05;30.60;99.90
26621;DHT22;14253;44.840;10.444;2023-09-19T13:13:33;30.80;99.90
26621;DHT22;14253;44.840;10.444;2023-09-19T13:16:01;30.80;99.90
26621;DHT22;14253;44.840;10.444;2023-09-19T13:18:28;30.80;99.90
26621;DHT22;14253;44.840;10.444;2023-09-19T13:21:08;30.60;99.90
26621;DHT22;14253;44.840;10.444;2023-09-19T13:23:50;30.70;99.90
26621;DHT22;14253;44.840;10.444;2023-09-19T13:26:16;30.80;99.90
26621;DHT22;14253;44.840;10.444;2023-09-19T13:28:42;30.90;99.90
26621;DHT22;14253;44.840;10.444;2023-09-19T13:31:10;30.60;99.90
26621;DHT22;14253;44.840;10.444;2023-09-19T13:33:43;30.40;99.90
26621;DHT22;14253;44.840;10.444;2023-09-19T13:36:11;30.30;99.90
26621;DHT22;14253;44.840;10.444;2023-09-19T13:38:42;30.50;99.90
26621;DHT22;14253;44.840;10.444;2023-09-19T13:41:10;30.70;99.90
26621;DHT22;14253;44.840;10.444;2023-09-19T13:43:37;30.90;99.90
26621;DHT22;14253;44.840;10.444;2023-09-19T13:46:05;31.10;99.90
26621;DHT22;14253;44.840;10.444;2023-09-19T13:48:33;31.20;99.90
26621;DHT22;14253;44.840;10.444;2023-09-19T13:51:02;30.80;99.90
26621;DHT22;14253;44.840;10.444;2023-09-19T13:53:29;30.60;99.90
26621;DHT22;14253;44.840;10.444;2023-09-19T13:55:55;30.50;99.90
26621;DHT22;14253;44.840;10.444;2023-09-19T13:58:22;30.50;99.90
26621;DHT22;14253;44.840;10.444;2023-09-19T14:00:48;30.60;99.90
26621;DHT22;14253;44.840;10.444;2023-09-19T14:03:14;30.50;99.90
26621;DHT22;14253;44.840;10.444;2023-09-19T14:05:40;30.50;99.90
26621;DHT22;14253;44.840;10.444;2023-09-19T14:08:08;30.70;99.90
26621;DHT22;14253;44.840;10.444;2023-09-19T14:10:34;30.70;99.90
26621;DHT22;14253;44.840;10.444;2023-09-19T14:13:01;30.70;99.90
26621;DHT22;14253;44.840;10.444;2023-09-19T14:15:27;31.00;99.90
26621;DHT22;14253;44.840;10.444;2023-09-19T14:17:57;31.10;99.90
26621;DHT22;14253;44.840;10.444;2023-09-19T14:20:25;31.20;99.90
26621;DHT22;14253;44.840;10.444;2023-09-19T14:22:54;31.30;99.90
26621;DHT22;14253;44.840;10.444;2023-09-19T14:25:20;31.40;99.90
26621;DHT22;14253;44.840;10.444;2023-09-19T14:27:47;31.50;99.90
26621;DHT22;14253;44.840;10.444;2023-09-19T14:30:13;31.60;99.90
26621;DHT22;14253;44.840;10.444;2023-09-19T14:32:40;31.70;99.90
26621;DHT22;14253;44.840;10.444;2023-09-19T14:35:07;31.60;99.90
26621;DHT22;14253;44.840;10.444;2023-09-19T14:37:35;31.70;99.90
26621;DHT22;14253;44.840;10.444;2023-09-19T14:40:01;31.80;99.90
26621;DHT22;14253;44.840;10.444;2023-09-19T14:42:32;31.70;99.90
26621;DHT22;14253;44.840;10.444;2023-09-19T14:45:02;31.80;99.90
26621;DHT22;14253;44.840;10.444;2023-09-19T14:47:29;31.50;99.90
26621;DHT22;14253;44.840;10.444;2023-09-19T14:49:57;31.20;99.90
26621;DHT22;14253;44.840;10.444;2023-09-19T14:52:23;31.30;99.90
26621;DHT22;14253;44.840;10.444;2023-09-19T14:54:52;31.40;99.90
26621;DHT22;14253;44.840;10.444;2023-09-19T14:57:18;31.80;99.90
26621;DHT22;14253;44.840;10.444;2023-09-19T14:59:44;32.10;99.90
26621;DHT22;14253;44.840;10.444;2023-09-19T15:02:10;32.60;99.90
26621;DHT22;14253;44.840;10.444;2023-09-19T15:04:36;32.80;99.90
26621;DHT22;14253;44.840;10.444;2023-09-19T15:07:03;32.90;99.90
26621;DHT22;14253;44.840;10.444;2023-09-19T15:09:30;33.40;99.90
26621;DHT22;14253;44.840;10.444;2023-09-19T15:11:57;33.50;99.90
26621;DHT22;14253;44.840;10.444;2023-09-19T15:14:24;33.70;99.90
26621;DHT22;14253;44.840;10.444;2023-09-19T15:16:50;33.80;99.90
26621;DHT22;14253;44.840;10.444;2023-09-19T15:19:16;33.70;99.90
26621;DHT22;14253;44.840;10.444;2023-09-19T15:21:43;33.50;99.90
26621;DHT22;14253;44.840;10.444;2023-09-19T15:24:09;33.20;99.90
26621;DHT22;14253;44.840;10.444;2023-09-19T15:26:37;33.20;99.90
26621;DHT22;14253;44.840;10.444;2023-09-19T15:29:09;33.40;99.90
26621;DHT22;14253;44.840;10.444;2023-09-19T15:31:36;33.60;99.90
26621;DHT22;14253;44.840;10.444;2023-09-19T15:34:03;33.60;99.90
26621;DHT22;14253;44.840;10.444;2023-09-19T15:36:29;33.70;99.90
26621;DHT22;14253;44.840;10.444;2023-09-19T15:39:03;33.30;99.90
26621;DHT22;14253;44.840;10.444;2023-09-19T15:41:32;32.50;99.90
26621;DHT22;14253;44.840;10.444;2023-09-19T15:43:59;31.70;99.90
26621;DHT22;14253;44.840;10.444;2023-09-19T15:46:27;31.10;99.90
26621;DHT22;14253;44.840;10.444;2023-09-19T15:48:54;30.50;99.90
26621;DHT22;14253;44.840;10.444;2023-09-19T15:51:20;30.00;99.90
26621;DHT22;14253;44.840;10.444;2023-09-19T15:53:51;29.60;99.90
26621;DHT22;14253;44.840;10.444;2023-09-19T15:56:17;29.40;99.90
26621;DHT22;14253;44.840;10.444;2023-09-19T15:58:44;29.20;99.90
26621;DHT22;14253;44.840;10.444;2023-09-19T16:01:11;29.00;99.90
26621;DHT22;14253;44.840;10.444;2023-09-19T16:03:44;28.70;99.90
26621;DHT22;14253;44.840;10.444;2023-09-19T16:06:12;28.60;99.90
26621;DHT22;14253;44.840;10.444;2023-09-19T16:08:43;28.50;99.90
26621;DHT22;14253;44.840;10.444;2023-09-19T16:11:10;28.30;99.90
26621;DHT22;14253;44.840;10.444;2023-09-19T16:13:40;28.30;99.90
26621;DHT22;14253;44.840;10.444;2023-09-19T16:16:11;28.20;99.90
26621;DHT22;14253;44.840;10.444;2023-09-19T16:18:38;28.20;99.90
26621;DHT22;14253;44.840;10.444;2023-09-19T16:21:06;28.20;99.90
26621;DHT22;14253;44.840;10.444;2023-09-19T16:23:35;28.10;99.90
26621;DHT22;14253;44.840;10.444;2023-09-19T16:26:03;28.10;99.90
26621;DHT22;14253;44.840;10.444;2023-09-19T16:28:31;28.10;99.90
26621;DHT22;14253;44.840;10.444;2023-09-19T16:30:58;28.00;99.90
26621;DHT22;14253;44.840;10.444;2023-09-19T16:33:25;27.90;99.90
26621;DHT22;14253;44.840;10.444;2023-09-19T16:35:52;27.80;99.90